Time;durP1;ratioP1;P1;durP2;ratioP2;P2;SDS_P1;SDS_P2;PMS_P1;PMS_P2;Temp;Humidity;BMP_temperature;BMP_pressure;BME280_temperature;BME280_humidity;BME280_pressure;Samples;Min_cycle;Max_cycle;Signal;HPM_P1;HPM_P2
2021/12/19 00:00:52;;;;;;;14.87;11.57;;;3.00;99.90;;;;;;5095268;28;20229;-92
2021/12/19 00:03:36;;;;;;;12.02;9.43;;;3.00;99.90;;;;;;5095272;28;20211;-91
2021/12/19 00:08:51;;;;;;;31.70;10.77;;;3.10;99.90;;;;;;5094712;28;20307;-91
2021/12/19 00:11:21;;;;;;;9.77;8.40;;;3.10;99.90;;;;;;5094979;28;20208;-91
2021/12/19 00:13:50;;;;;;;11.80;9.50;;;3.10;99.90;;;;;;5094633;28;20208;-91
2021/12/19 00:16:21;;;;;;;10.95;9.57;;;3.10;99.90;;;;;;5095118;28;20205;-91
2021/12/19 00:18:52;;;;;;;13.43;9.07;;;3.10;99.90;;;;;;5093959;28;20224;-90
2021/12/19 00:21:22;;;;;;;17.70;8.50;;;3.10;99.90;;;;;;5095599;28;20212;-91
2021/12/19 00:23:53;;;;;;;11.73;9.50;;;3.10;99.90;;;;;;5095179;28;20220;-91
2021/12/19 00:26:22;;;;;;;10.45;9.35;;;3.10;99.90;;;;;;5094539;28;20216;-91
2021/12/19 00:28:51;;;;;;;11.80;10.60;;;3.10;99.90;;;;;;5093935;28;20220;-91
2021/12/19 00:31:21;;;;;;;14.07;10.80;;;3.00;99.90;;;;;;5094896;28;20273;-91
2021/12/19 00:33:50;;;;;;;11.97;8.80;;;2.90;99.90;;;;;;5094986;28;20227;-92
2021/12/19 00:36:18;;;;;;;12.70;9.47;;;2.90;99.90;;;;;;5094822;28;20200;-91
2021/12/19 00:38:46;;;;;;;11.67;10.47;;;2.80;99.90;;;;;;5093796;28;20290;-91
2021/12/19 00:41:15;;;;;;;14.50;10.67;;;2.80;99.90;;;;;;5095214;28;20253;-91
2021/12/19 00:43:46;;;;;;;11.68;10.05;;;2.80;99.90;;;;;;5094288;28;20235;-90
2021/12/19 00:46:18;;;;;;;14.32;10.48;;;2.70;99.90;;;;;;5094450;28;20224;-91
2021/12/19 00:48:51;;;;;;;12.63;10.55;;;2.70;99.90;;;;;;5094332;28;20281;-90
2021/12/19 00:51:22;;;;;;;12.18;10.20;;;2.60;99.90;;;;;;5094067;28;20212;-91
2021/12/19 00:53:52;;;;;;;14.48;10.23;;;2.60;99.90;;;;;;5093751;28;20196;-90
2021/12/19 00:56:21;;;;;;;11.73;10.20;;;2.50;99.90;;;;;;5094206;28;20196;-91
2021/12/19 00:58:50;;;;;;;11.70;10.07;;;2.50;99.90;;;;;;5093657;28;20255;-90
2021/12/19 01:01:20;;;;;;;11.97;10.73;;;2.50;99.90;;;;;;5093749;28;20219;-91
2021/12/19 01:03:49;;;;;;;10.80;9.67;;;2.50;99.90;;;;;;5093681;28;20261;-91
2021/12/19 01:06:19;;;;;;;14.85;10.70;;;2.50;99.90;;;;;;5096427;28;20212;-89
2021/12/19 01:08:47;;;;;;;17.37;10.47;;;2.50;99.90;;;;;;5097295;28;20256;-89
2021/12/19 01:11:16;;;;;;;9.97;8.93;;;2.50;99.90;;;;;;5093930;28;20254;-91
2021/12/19 01:13:44;;;;;;;9.77;7.60;;;2.40;99.90;;;;;;5093806;28;20204;-91
2021/12/19 01:16:12;;;;;;;15.85;10.80;;;2.40;99.90;;;;;;5093664;28;20295;-91
2021/12/19 01:18:41;;;;;;;11.70;9.73;;;2.40;99.90;;;;;;5093456;28;20252;-90
2021/12/19 01:21:11;;;;;;;12.40;10.93;;;2.40;99.90;;;;;;5093281;28;20241;-91
2021/12/19 01:23:39;;;;;;;11.27;10.00;;;2.40;99.90;;;;;;5093458;28;20204;-91
2021/12/19 01:26:08;;;;;;;11.10;8.77;;;2.40;99.90;;;;;;5093194;28;20220;-91
2021/12/19 01:28:36;;;;;;;15.43;10.50;;;2.30;99.90;;;;;;5093227;28;20225;-91
2021/12/19 01:31:05;;;;;;;11.60;10.40;;;2.30;99.90;;;;;;5093219;28;20200;-91
2021/12/19 01:33:33;;;;;;;17.03;11.93;;;2.30;99.90;;;;;;5093239;28;20226;-91
2021/12/19 01:36:03;;;;;;;13.07;11.43;;;2.30;99.90;;;;;;5093131;28;20200;-91
2021/12/19 01:38:33;;;;;;;14.23;12.17;;;2.30;99.90;;;;;;5093558;28;20356;-91
2021/12/19 01:41:03;;;;;;;12.60;11.25;;;2.30;99.90;;;;;;5093303;28;20204;-89
2021/12/19 01:43:31;;;;;;;11.03;9.93;;;2.40;99.90;;;;;;5093613;28;20228;-89
2021/12/19 01:46:00;;;;;;;13.90;10.17;;;2.40;99.90;;;;;;5099441;28;20224;-89
2021/12/19 01:48:28;;;;;;;12.13;10.90;;;2.40;99.90;;;;;;5098309;28;20280;-89
2021/12/19 01:50:57;;;;;;;17.33;12.48;;;2.40;99.90;;;;;;5095271;28;20228;-89
2021/12/19 01:53:28;;;;;;;14.00;12.37;;;2.40;99.90;;;;;;5096887;28;20200;-89
2021/12/19 01:55:58;;;;;;;15.33;12.03;;;2.50;99.90;;;;;;5094616;28;20196;-90
2021/12/19 01:58:27;;;;;;;20.58;14.48;;;2.50;99.90;;;;;;5093500;28;20224;-90
2021/12/19 02:00:57;;;;;;;13.20;11.80;;;2.50;99.90;;;;;;5093055;28;20265;-89
2021/12/19 02:03:26;;;;;;;16.67;13.40;;;2.60;99.90;;;;;;5093491;28;20295;-89
2021/12/19 02:05:55;;;;;;;12.52;11.23;;;2.50;99.90;;;;;;5092785;28;20232;-93
2021/12/19 02:08:23;;;;;;;13.90;11.82;;;2.60;99.90;;;;;;5092832;28;20220;-94
2021/12/19 02:10:52;;;;;;;21.17;13.70;;;2.60;99.90;;;;;;5092157;28;20208;-93
2021/12/19 02:13:22;;;;;;;18.73;12.40;;;2.60;99.90;;;;;;5092552;28;20212;-94
2021/12/19 02:15:50;;;;;;;14.50;12.35;;;2.70;99.90;;;;;;5092741;28;20208;-94
2021/12/19 02:18:21;;;;;;;14.10;11.25;;;2.70;99.90;;;;;;5092431;28;20216;-93
2021/12/19 02:20:53;;;;;;;16.25;12.32;;;2.70;99.90;;;;;;5092399;28;20213;-88
2021/12/19 02:23:25;;;;;;;11.73;10.63;;;2.70;99.90;;;;;;5092599;28;20204;-89
2021/12/19 02:25:55;;;;;;;14.88;11.57;;;2.70;99.90;;;;;;5092532;28;20208;-89
2021/12/19 02:28:23;;;;;;;15.10;12.38;;;2.80;99.90;;;;;;5092451;28;20285;-89
2021/12/19 02:30:52;;;;;;;13.20;11.73;;;2.80;99.90;;;;;;5092112;28;20303;-90
2021/12/19 02:33:24;;;;;;;12.38;10.82;;;2.80;99.90;;;;;;5092581;28;20204;-89
2021/12/19 02:36:02;;;;;;;12.15;10.63;;;2.80;99.90;;;;;;5094017;28;20214;-89
2021/12/19 02:49:46;;;;;;;15.43;12.33;;;2.70;99.90;;;;;;5033554;28;20245;-89
2021/12/19 02:52:19;;;;;;;14.52;11.57;;;2.80;99.90;;;;;;5081596;28;20244;-88
2021/12/19 02:54:47;;;;;;;15.77;12.85;;;2.80;99.90;;;;;;5095985;28;20254;-90
2021/12/19 02:57:16;;;;;;;16.93;12.47;;;2.80;99.90;;;;;;5096283;28;20228;-89
2021/12/19 02:59:44;;;;;;;15.87;11.83;;;2.80;99.90;;;;;;5097573;28;20236;-90
2021/12/19 03:02:13;;;;;;;16.33;12.15;;;2.80;99.90;;;;;;5098618;28;20208;-90
2021/12/19 03:04:53;;;;;;;13.60;11.93;;;2.80;99.90;;;;;;5100425;28;20239;-87
2021/12/19 03:07:25;;;;;;;13.60;12.03;;;2.80;99.90;;;;;;5112193;28;20258;-89
2021/12/19 03:10:04;;;;;;;15.00;11.27;;;2.80;99.90;;;;;;5111099;28;20275;-90
2021/12/19 03:12:45;;;;;;;14.43;12.40;;;2.80;99.90;;;;;;5096933;28;20204;-90
2021/12/19 03:18:05;;;;;;;16.73;12.23;;;2.80;99.90;;;;;;5095659;28;20220;-90
2021/12/19 03:20:35;;;;;;;13.50;11.32;;;2.80;99.90;;;;;;5095593;28;20231;-90
2021/12/19 03:23:06;;;;;;;17.90;12.25;;;2.80;99.90;;;;;;5095591;28;20200;-90
2021/12/19 03:25:35;;;;;;;12.23;10.73;;;2.80;99.90;;;;;;5095712;28;20204;-90
2021/12/19 03:28:06;;;;;;;13.20;10.63;;;2.80;99.90;;;;;;5095475;28;20294;-90
2021/12/19 03:30:36;;;;;;;19.37;11.70;;;2.80;99.90;;;;;;5094940;28;20216;-90
2021/12/19 03:33:05;;;;;;;14.43;12.50;;;2.80;99.90;;;;;;5095716;28;20209;-90
2021/12/19 03:35:34;;;;;;;13.38;11.00;;;2.80;99.90;;;;;;5095573;28;20282;-90
2021/12/19 03:38:07;;;;;;;16.67;12.00;;;2.80;99.90;;;;;;5095435;28;20224;-90
2021/12/19 03:40:37;;;;;;;14.57;10.63;;;2.70;99.90;;;;;;5094650;28;20208;-90
2021/12/19 03:43:08;;;;;;;15.57;11.93;;;2.70;99.90;;;;;;5095374;28;20213;-90
2021/12/19 03:45:37;;;;;;;12.10;10.73;;;2.70;99.90;;;;;;5095562;28;20212;-90
2021/12/19 03:48:11;;;;;;;12.18;10.35;;;2.70;99.90;;;;;;5093621;28;20228;-90
2021/12/19 03:50:42;;;;;;;13.35;9.20;;;2.80;99.90;;;;;;5094766;28;20204;-90
2021/12/19 03:53:13;;;;;;;14.93;10.40;;;2.70;99.90;;;;;;5094977;28;20411;-91
2021/12/19 03:55:42;;;;;;;15.73;11.13;;;2.70;99.90;;;;;;5095184;28;20204;-90
2021/12/19 03:58:11;;;;;;;13.60;10.32;;;2.70;99.90;;;;;;5094803;28;20220;-90
2021/12/19 04:00:42;;;;;;;11.33;9.83;;;2.70;99.90;;;;;;5094629;28;20201;-90
2021/12/19 04:03:17;;;;;;;15.60;10.80;;;2.80;99.90;;;;;;5095429;28;20207;-90
2021/12/19 04:05:46;;;;;;;18.87;11.90;;;2.70;99.90;;;;;;5094732;28;20203;-90
2021/12/19 04:08:17;;;;;;;13.30;9.97;;;2.80;99.90;;;;;;5094552;28;20228;-90
2021/12/19 04:10:47;;;;;;;13.90;11.20;;;2.70;99.90;;;;;;5094281;28;20204;-90
2021/12/19 04:13:16;;;;;;;16.70;11.47;;;2.70;99.90;;;;;;5094769;28;20216;-90
2021/12/19 04:15:44;;;;;;;15.00;10.57;;;2.70;99.90;;;;;;5094386;28;20217;-90
2021/12/19 04:18:13;;;;;;;14.97;10.53;;;2.70;99.90;;;;;;5094607;28;20290;-90
2021/12/19 04:20:41;;;;;;;13.97;11.17;;;2.60;99.90;;;;;;5094511;28;20204;-90
2021/12/19 04:23:10;;;;;;;14.33;10.50;;;2.60;99.90;;;;;;5094621;28;20291;-90
2021/12/19 04:25:40;;;;;;;11.88;9.10;;;2.60;99.90;;;;;;5094502;28;20205;-90
2021/12/19 04:28:09;;;;;;;10.17;9.10;;;2.60;99.90;;;;;;5094170;28;20216;-90
2021/12/19 04:30:37;;;;;;;14.30;8.93;;;2.60;99.90;;;;;;5094040;28;20204;-90
2021/12/19 04:33:09;;;;;;;14.13;11.07;;;2.60;99.90;;;;;;5094772;28;20230;-90
2021/12/19 04:35:41;;;;;;;14.83;11.03;;;2.60;99.90;;;;;;5094340;28;20219;-90
2021/12/19 04:58:49;;;;;;;11.47;9.57;;;2.60;99.90;;;;;;5087328;28;20250;-90
2021/12/19 05:01:39;;;;;;;11.10;9.33;;;2.70;99.90;;;;;;5094264;28;20200;-92
2021/12/19 05:04:14;;;;;;;9.77;8.77;;;2.70;99.90;;;;;;5093991;28;20253;-89
2021/12/19 05:15:04;;;;;;;14.00;9.47;;;2.60;99.90;;;;;;5093767;28;20208;-90
2021/12/19 05:17:33;;;;;;;9.95;8.57;;;2.60;99.90;;;;;;5093033;28;20217;-90
2021/12/19 05:20:11;;;;;;;12.60;10.00;;;2.60;99.90;;;;;;5093223;28;20208;-90
2021/12/19 05:22:46;;;;;;;12.20;8.43;;;2.70;99.90;;;;;;5093023;28;20244;-90
2021/12/19 05:25:17;;;;;;;9.87;8.50;;;2.70;99.90;;;;;;5093724;28;20220;-90
2021/12/19 05:27:46;;;;;;;13.67;10.07;;;2.70;99.90;;;;;;5093630;28;20232;-90
2021/12/19 05:30:17;;;;;;;9.27;7.90;;;2.70;99.90;;;;;;5092844;28;20239;-90
2021/12/19 05:32:48;;;;;;;13.93;9.53;;;2.60;99.90;;;;;;5093376;28;20261;-92
2021/12/19 05:35:24;;;;;;;14.83;9.83;;;2.60;99.90;;;;;;5093317;28;20204;-90
2021/12/19 05:46:10;;;;;;;7.53;6.13;;;2.70;99.90;;;;;;5092895;28;20258;-90
2021/12/19 05:48:39;;;;;;;10.20;8.75;;;2.70;99.90;;;;;;5092486;28;20244;-90
2021/12/19 05:51:07;;;;;;;14.47;10.40;;;2.70;99.90;;;;;;5092740;28;20204;-90
2021/12/19 05:53:35;;;;;;;12.40;7.97;;;2.70;99.90;;;;;;5093028;28;20231;-91
2021/12/19 05:56:04;;;;;;;9.37;7.70;;;2.60;99.90;;;;;;5093069;28;20224;-90
2021/12/19 05:58:33;;;;;;;9.47;8.37;;;2.60;99.90;;;;;;5093935;28;20220;-90
2021/12/19 06:01:01;;;;;;;18.73;9.53;;;2.50;99.90;;;;;;5097682;28;20211;-90
2021/12/19 06:03:31;;;;;;;12.83;9.50;;;2.50;99.90;;;;;;5098320;28;20211;-90
2021/12/19 06:06:00;;;;;;;10.40;9.25;;;2.40;99.90;;;;;;5097316;28;20258;-90
2021/12/19 06:08:28;;;;;;;9.80;8.80;;;2.40;99.90;;;;;;5094755;28;20216;-90
2021/12/19 06:10:56;;;;;;;14.10;8.43;;;2.40;99.90;;;;;;5092063;28;20208;-90
2021/12/19 06:13:25;;;;;;;9.52;7.88;;;2.40;99.90;;;;;;5093596;28;20223;-90
2021/12/19 06:15:55;;;;;;;11.23;8.23;;;2.40;99.90;;;;;;5093047;28;20204;-89
2021/12/19 06:18:24;;;;;;;12.53;8.90;;;2.40;99.90;;;;;;5092893;28;20273;-90
2021/12/19 06:20:54;;;;;;;12.37;9.77;;;2.30;99.90;;;;;;5092272;28;20208;-90
2021/12/19 06:23:23;;;;;;;14.63;10.67;;;2.30;99.90;;;;;;5092404;28;20208;-90
2021/12/19 06:25:53;;;;;;;23.87;8.80;;;2.30;99.90;;;;;;5092613;28;20196;-90
2021/12/19 06:28:22;;;;;;;11.13;7.10;;;2.30;99.90;;;;;;5092075;28;20216;-90
2021/12/19 06:30:51;;;;;;;11.87;8.67;;;2.30;99.90;;;;;;5091858;28;20204;-89
2021/12/19 06:33:19;;;;;;;16.37;10.00;;;2.30;99.90;;;;;;5092603;28;20204;-90
2021/12/19 06:35:48;;;;;;;9.97;7.87;;;2.30;99.90;;;;;;5092272;28;20201;-90
2021/12/19 06:38:18;;;;;;;11.63;9.10;;;2.30;99.90;;;;;;5092060;28;20237;-90
2021/12/19 06:40:46;;;;;;;11.70;6.77;;;2.20;99.90;;;;;;5091781;28;20262;-90
2021/12/19 06:43:14;;;;;;;13.27;9.83;;;2.20;99.90;;;;;;5092054;28;20231;-90
2021/12/19 06:45:43;;;;;;;10.40;9.33;;;2.20;99.90;;;;;;5092310;28;20208;-90
2021/12/19 06:48:11;;;;;;;8.37;7.43;;;2.20;99.90;;;;;;5092087;28;20248;-90
2021/12/19 06:50:40;;;;;;;10.47;6.73;;;2.20;99.90;;;;;;5091597;28;20259;-90
2021/12/19 06:53:08;;;;;;;8.87;6.97;;;2.20;99.90;;;;;;5092000;28;20228;-90
2021/12/19 06:55:38;;;;;;;10.57;7.20;;;2.20;99.90;;;;;;5092181;28;20200;-90
2021/12/19 06:58:06;;;;;;;17.37;8.03;;;2.20;99.90;;;;;;5092269;28;20247;-90
2021/12/19 07:00:35;;;;;;;6.43;5.07;;;2.20;99.90;;;;;;5092676;28;20254;-89
2021/12/19 07:03:03;;;;;;;9.55;6.43;;;2.20;99.90;;;;;;5093636;28;20215;-89
2021/12/19 07:05:32;;;;;;;8.63;6.53;;;2.30;99.90;;;;;;5093345;28;20201;-90
2021/12/19 07:08:00;;;;;;;10.93;6.70;;;2.30;99.90;;;;;;5099292;28;20225;-88
2021/12/19 07:10:29;;;;;;;8.82;7.50;;;2.30;99.90;;;;;;5104616;28;20242;-88
2021/12/19 07:12:59;;;;;;;5.87;5.17;;;2.40;99.90;;;;;;5104128;28;20208;-88
2021/12/19 07:15:27;;;;;;;7.13;5.32;;;2.40;99.90;;;;;;5092299;28;20196;-89
2021/12/19 07:18:02;;;;;;;10.17;6.40;;;2.40;99.90;;;;;;5091810;28;20224;-90
2021/12/19 07:20:30;;;;;;;7.73;5.93;;;2.40;99.90;;;;;;5091388;28;20200;-90
2021/12/19 07:22:59;;;;;;;7.43;6.43;;;2.40;99.90;;;;;;5095275;28;20256;-89
2021/12/19 07:25:27;;;;;;;6.03;5.43;;;2.50;99.90;;;;;;5095667;28;20212;-90
2021/12/19 07:27:56;;;;;;;6.33;4.90;;;2.50;99.90;;;;;;5095347;28;20228;-89
2021/12/19 07:30:26;;;;;;;7.43;6.60;;;2.60;99.90;;;;;;5094936;28;20273;-90
2021/12/19 07:32:55;;;;;;;5.87;5.30;;;2.60;99.90;;;;;;5095593;28;20207;-90
2021/12/19 07:35:24;;;;;;;7.03;5.07;;;2.60;99.90;;;;;;5095394;28;20204;-90
2021/12/19 07:37:55;;;;;;;5.97;5.37;;;2.60;99.90;;;;;;5095249;28;20224;-90
2021/12/19 07:40:27;;;;;;;5.90;5.33;;;2.60;99.90;;;;;;5094969;28;20205;-89
2021/12/19 07:42:58;;;;;;;5.60;4.40;;;2.70;99.90;;;;;;5095533;28;20236;-90
2021/12/19 07:45:28;;;;;;;7.85;4.88;;;2.70;99.90;;;;;;5095114;28;20208;-90
2021/12/19 07:47:56;;;;;;;6.72;5.03;;;2.70;99.90;;;;;;5094726;28;20221;-89
2021/12/19 07:50:25;;;;;;;5.25;4.38;;;2.80;99.90;;;;;;5094367;28;20237;-89
2021/12/19 07:52:54;;;;;;;5.50;4.53;;;2.80;99.90;;;;;;5095224;28;20266;-89
2021/12/19 07:55:24;;;;;;;4.90;4.43;;;2.80;99.90;;;;;;5094973;28;20223;-88
2021/12/19 07:57:52;;;;;;;4.70;4.17;;;2.80;99.90;;;;;;5095352;28;20224;-89
2021/12/19 08:00:21;;;;;;;5.65;4.72;;;2.80;99.90;;;;;;5095488;28;20196;-90
2021/12/19 08:02:51;;;;;;;5.75;4.28;;;2.80;99.90;;;;;;5095185;28;20196;-90
2021/12/19 08:05:22;;;;;;;6.45;5.35;;;2.80;99.90;;;;;;5095231;28;20208;-89
2021/12/19 08:07:56;;;;;;;6.97;4.23;;;2.80;99.90;;;;;;5094707;28;20246;-90
2021/12/19 08:13:15;;;;;;;3.83;3.50;;;2.90;99.90;;;;;;5019881;28;20210;-90
2021/12/19 08:15:43;;;;;;;4.82;4.32;;;2.90;99.90;;;;;;5094739;28;20242;-90
2021/12/19 08:18:13;;;;;;;4.93;4.13;;;3.00;99.90;;;;;;5094593;28;20227;-90
2021/12/19 08:20:42;;;;;;;7.57;4.85;;;3.00;99.90;;;;;;5094185;28;20197;-90
2021/12/19 08:23:10;;;;;;;4.78;4.25;;;3.00;99.90;;;;;;5094616;28;20200;-90
2021/12/19 08:25:39;;;;;;;5.57;4.80;;;3.00;99.90;;;;;;5094219;28;20250;-90
2021/12/19 08:28:07;;;;;;;6.45;4.90;;;3.10;99.90;;;;;;5094110;28;20229;-90
2021/12/19 08:30:36;;;;;;;9.40;3.50;;;3.10;99.90;;;;;;5093867;28;20293;-89
2021/12/19 08:33:04;;;;;;;5.77;4.50;;;3.10;99.90;;;;;;5093711;28;20205;-89
2021/12/19 08:35:34;;;;;;;5.22;4.70;;;3.20;99.90;;;;;;5094534;28;20209;-90
2021/12/19 08:38:02;;;;;;;6.70;5.38;;;3.20;99.90;;;;;;5094239;28;20229;-90
2021/12/19 08:40:32;;;;;;;4.70;3.63;;;3.30;99.90;;;;;;5093143;28;20205;-89
2021/12/19 08:43:01;;;;;;;11.13;5.28;;;3.30;99.90;;;;;;5094094;28;20261;-90
2021/12/19 08:45:29;;;;;;;5.72;5.13;;;3.30;99.90;;;;;;5094397;28;20230;-89
2021/12/19 08:47:58;;;;;;;6.95;4.65;;;3.40;99.90;;;;;;5094058;28;20220;-90
2021/12/19 08:50:27;;;;;;;4.47;4.07;;;3.40;99.90;;;;;;5093424;28;20247;-90
2021/12/19 08:52:57;;;;;;;4.82;4.32;;;3.40;99.90;;;;;;5093910;28;20204;-89
2021/12/19 08:55:25;;;;;;;5.20;4.67;;;3.50;99.90;;;;;;5093556;28;20213;-89
2021/12/19 08:57:54;;;;;;;4.93;3.50;;;3.50;99.90;;;;;;5094354;28;20285;-90
2021/12/19 09:00:23;;;;;;;6.57;4.20;;;3.60;99.90;;;;;;5093332;28;20303;-90
2021/12/19 09:02:55;;;;;;;5.20;4.43;;;3.70;99.90;;;;;;5094225;28;20201;-90
2021/12/19 09:05:25;;;;;;;6.93;4.57;;;3.70;99.90;;;;;;5093921;28;20208;-89
2021/12/19 09:07:53;;;;;;;5.05;4.38;;;3.70;99.90;;;;;;5093458;28;20224;-90
2021/12/19 09:10:24;;;;;;;4.57;3.97;;;3.80;99.90;;;;;;5094184;28;20242;-90
2021/12/19 09:12:52;;;;;;;5.20;4.32;;;3.80;99.90;;;;;;5094767;28;20204;-90
2021/12/19 09:15:22;;;;;;;5.47;3.63;;;3.90;99.90;;;;;;5094362;28;20197;-89
2021/12/19 09:17:51;;;;;;;4.88;3.80;;;3.90;99.90;;;;;;5099559;28;20224;-88
2021/12/19 09:20:19;;;;;;;6.53;4.60;;;3.90;99.90;;;;;;5101339;28;20283;-87
2021/12/19 09:22:48;;;;;;;10.02;5.07;;;4.00;99.90;;;;;;5096113;28;20216;-90
2021/12/19 09:25:19;;;;;;;5.07;4.18;;;4.00;99.90;;;;;;5093491;28;20206;-89
2021/12/19 09:27:49;;;;;;;4.65;3.63;;;4.10;99.90;;;;;;5093440;28;20270;-90
2021/12/19 09:30:18;;;;;;;4.57;3.38;;;4.20;99.90;;;;;;5092673;28;20216;-89
2021/12/19 09:32:47;;;;;;;6.43;4.13;;;4.20;99.90;;;;;;5093065;28;20208;-90
2021/12/19 09:35:16;;;;;;;4.93;4.18;;;4.20;99.90;;;;;;5093351;28;20287;-90
2021/12/19 09:37:44;;;;;;;4.53;3.72;;;4.20;99.90;;;;;;5092933;28;20242;-90
2021/12/19 09:40:19;;;;;;;4.35;3.95;;;4.20;99.90;;;;;;5092452;28;20200;-90
2021/12/19 09:42:51;;;;;;;3.80;3.15;;;4.20;99.90;;;;;;5092642;28;20208;-89
2021/12/19 09:45:21;;;;;;;3.42;3.13;;;4.30;99.90;;;;;;5092034;28;20208;-90
2021/12/19 09:47:49;;;;;;;3.90;3.50;;;4.20;99.90;;;;;;5093100;28;20271;-90
2021/12/19 09:50:18;;;;;;;5.40;3.78;;;4.20;99.90;;;;;;5092828;28;20222;-90
2021/12/19 09:52:47;;;;;;;4.35;3.38;;;4.30;99.90;;;;;;5093002;28;20212;-90
2021/12/19 09:55:18;;;;;;;4.90;2.88;;;4.30;99.90;;;;;;5093097;28;20200;-90
2021/12/19 09:57:47;;;;;;;4.53;3.75;;;4.30;99.90;;;;;;5092370;28;20246;-90
2021/12/19 10:00:18;;;;;;;3.80;3.17;;;4.30;99.90;;;;;;5092657;28;20208;-90
2021/12/19 10:02:47;;;;;;;3.38;3.08;;;4.40;99.90;;;;;;5092888;28;20204;-90
2021/12/19 10:05:19;;;;;;;4.05;3.28;;;4.40;99.90;;;;;;5092742;28;20201;-90
2021/12/19 10:07:50;;;;;;;3.08;2.78;;;4.50;99.90;;;;;;5092519;28;20228;-90
2021/12/19 10:10:26;;;;;;;4.55;3.60;;;4.50;99.90;;;;;;5092351;28;20216;-90
2021/12/19 10:12:58;;;;;;;9.63;3.08;;;4.60;99.90;;;;;;5092877;28;20253;-90
2021/12/19 10:15:34;;;;;;;6.43;3.90;;;4.70;99.90;;;;;;5092666;28;20201;-90
2021/12/19 10:18:08;;;;;;;3.20;2.90;;;4.90;99.90;;;;;;5093049;28;20285;-90
2021/12/19 10:20:47;;;;;;;3.35;3.00;;;5.00;99.90;;;;;;5092746;28;20220;-90
2021/12/19 10:23:17;;;;;;;4.03;3.53;;;5.20;99.90;;;;;;5094120;28;20211;-90
2021/12/19 10:25:56;;;;;;;2.95;2.65;;;5.40;99.90;;;;;;5096587;28;20204;-90
2021/12/19 10:28:24;;;;;;;3.08;2.72;;;5.70;99.90;;;;;;5096192;28;20220;-90
2021/12/19 10:30:54;;;;;;;3.47;3.05;;;6.10;99.90;;;;;;5096373;28;20224;-90
2021/12/19 10:33:26;;;;;;;3.53;2.92;;;6.20;99.90;;;;;;5096001;28;20257;-90
2021/12/19 10:35:57;;;;;;;4.45;2.97;;;6.50;99.90;;;;;;5092908;28;20280;-90
2021/12/19 10:38:27;;;;;;;2.00;1.85;;;6.90;99.90;;;;;;5092521;28;20228;-90
2021/12/19 10:40:58;;;;;;;2.92;2.60;;;7.10;99.90;;;;;;5091945;28;20205;-90
2021/12/19 10:43:30;;;;;;;1.95;1.85;;;7.20;99.90;;;;;;5092479;28;20276;-90
2021/12/19 10:46:02;;;;;;;2.50;2.30;;;7.30;99.90;;;;;;5092659;28;20239;-90
2021/12/19 10:48:31;;;;;;;2.33;2.13;;;7.70;99.90;;;;;;5091981;28;20221;-90
2021/12/19 10:51:04;;;;;;;2.30;2.10;;;7.90;99.90;;;;;;5091696;28;20228;-90
2021/12/19 10:53:36;;;;;;;1.85;1.75;;;8.20;99.90;;;;;;5091865;28;20226;-91
2021/12/19 10:56:09;;;;;;;2.65;2.08;;;8.10;99.90;;;;;;5092424;28;20254;-91
2021/12/19 10:58:42;;;;;;;2.70;2.08;;;8.10;99.90;;;;;;5096343;28;20228;-91
2021/12/19 11:01:17;;;;;;;2.28;2.08;;;8.30;99.90;;;;;;5096216;28;20197;-91
2021/12/19 11:03:50;;;;;;;2.70;2.50;;;7.70;99.90;;;;;;5096282;28;20219;-91
2021/12/19 11:06:25;;;;;;;2.67;2.47;;;7.60;99.90;;;;;;5095992;28;20312;-91
2021/12/19 11:08:55;;;;;;;3.55;2.38;;;7.70;99.90;;;;;;5095239;28;20265;-91
2021/12/19 11:11:39;;;;;;;2.58;2.15;;;7.90;99.90;;;;;;5095861;28;20247;-91
2021/12/19 11:14:08;;;;;;;2.28;2.08;;;8.10;99.90;;;;;;5100400;28;20205;-90
2021/12/19 11:16:38;;;;;;;2.55;2.35;;;8.10;99.90;;;;;;5102385;28;20238;-91
2021/12/19 11:19:06;;;;;;;3.15;2.78;;;8.00;99.90;;;;;;5103337;28;20345;-91
2021/12/19 11:21:36;;;;;;;2.38;2.17;;;8.00;99.90;;;;;;5110518;28;20205;-90
2021/12/19 11:24:06;;;;;;;2.00;1.77;;;7.70;99.90;;;;;;5117768;28;20180;-89
2021/12/19 11:26:37;;;;;;;4.30;2.33;;;7.80;99.90;;;;;;5113595;28;20205;-91
2021/12/19 11:29:06;;;;;;;2.80;2.60;;;7.90;99.90;;;;;;5095513;28;20207;-91
2021/12/19 11:31:38;;;;;;;2.95;2.60;;;8.20;99.90;;;;;;5095485;28;20273;-91
2021/12/19 11:34:23;;;;;;;4.82;3.72;;;8.50;99.90;;;;;;5095210;28;20208;-92
2021/12/19 11:36:58;;;;;;;5.10;2.45;;;8.70;99.90;;;;;;5096175;28;20297;-92
2021/12/19 11:39:30;;;;;;;2.30;2.13;;;8.80;99.90;;;;;;5095190;28;20245;-91
2021/12/19 11:42:03;;;;;;;2.55;2.35;;;8.80;99.90;;;;;;5095150;28;20204;-90
2021/12/19 11:44:34;;;;;;;4.72;3.38;;;9.00;99.90;;;;;;5095416;28;20208;-91
2021/12/19 11:47:10;;;;;;;6.25;2.97;;;9.00;99.90;;;;;;5095030;28;20229;-90
2021/12/19 11:49:39;;;;;;;4.18;2.90;;;9.00;99.90;;;;;;5094410;28;20204;-90
2021/12/19 11:52:30;;;;;;;3.53;2.60;;;8.80;99.90;;;;;;5094985;28;20216;-90
2021/12/19 11:55:18;;;;;;;3.20;2.63;;;8.90;99.90;;;;;;5094932;28;20223;-90
2021/12/19 11:58:16;;;;;;;2.65;2.45;;;9.00;99.90;;;;;;5094687;28;20220;-90
2021/12/19 12:00:50;;;;;;;3.42;3.10;;;8.50;99.90;;;;;;5094347;28;20209;-90
2021/12/19 12:03:25;;;;;;;2.30;2.10;;;8.50;99.90;;;;;;5095142;28;20207;-90
2021/12/19 12:06:22;;;;;;;2.75;2.55;;;8.30;99.90;;;;;;5094394;28;20278;-90
2021/12/19 12:09:16;;;;;;;2.80;2.60;;;8.70;99.90;;;;;;5092867;28;20232;-90
2021/12/19 12:12:11;;;;;;;4.03;2.80;;;8.80;99.90;;;;;;5094628;28;20250;-90
2021/12/19 12:14:42;;;;;;;3.15;2.40;;;8.80;99.90;;;;;;5094731;28;20220;-91
2021/12/19 12:17:17;;;;;;;3.13;2.83;;;8.70;99.90;;;;;;5094410;28;20220;-90
2021/12/19 12:19:51;;;;;;;3.45;2.80;;;8.90;99.90;;;;;;5094078;28;20268;-91
2021/12/19 12:22:37;;;;;;;3.00;2.67;;;8.80;99.90;;;;;;5094994;28;20223;-90
2021/12/19 12:25:12;;;;;;;2.55;2.35;;;8.80;99.90;;;;;;5094782;28;20208;-91
2021/12/19 12:27:43;;;;;;;3.05;2.45;;;9.00;99.90;;;;;;5094254;28;20227;-90
2021/12/19 12:30:13;;;;;;;2.03;1.92;;;9.20;99.90;;;;;;5094127;28;20204;-90
2021/12/19 12:32:43;;;;;;;3.17;2.70;;;9.00;99.90;;;;;;5094462;28;20246;-91
2021/12/19 12:35:14;;;;;;;2.33;2.17;;;8.90;99.90;;;;;;5093857;28;20200;-92
2021/12/19 12:37:44;;;;;;;3.20;2.28;;;8.90;99.90;;;;;;5094110;28;20261;-91
2021/12/19 12:40:20;;;;;;;3.88;2.63;;;9.00;99.90;;;;;;5093150;28;20200;-91
2021/12/19 12:43:05;;;;;;;2.33;2.03;;;9.20;99.90;;;;;;5094356;28;20226;-91
2021/12/19 12:46:02;;;;;;;2.67;2.30;;;9.10;99.90;;;;;;5094446;28;20204;-91
2021/12/19 12:48:33;;;;;;;3.10;2.35;;;9.10;99.90;;;;;;5093750;28;20228;-91
2021/12/19 12:51:05;;;;;;;2.60;2.40;;;8.80;99.90;;;;;;5093708;28;20220;-91
2021/12/19 12:53:36;;;;;;;2.10;1.98;;;8.60;99.90;;;;;;5094142;28;20258;-91
2021/12/19 12:56:10;;;;;;;1.73;1.63;;;8.70;99.90;;;;;;5094030;28;20234;-92
2021/12/19 12:58:43;;;;;;;5.00;2.92;;;9.00;99.90;;;;;;5093833;28;20224;-90
2021/12/19 13:01:22;;;;;;;2.30;2.13;;;8.60;99.90;;;;;;5094087;28;20204;-91
2021/12/19 13:04:09;;;;;;;2.08;1.92;;;8.60;99.90;;;;;;5093989;28;20281;-91
2021/12/19 13:07:01;;;;;;;1.98;1.88;;;8.50;99.90;;;;;;5093367;28;20216;-91
2021/12/19 13:09:40;;;;;;;1.90;1.80;;;8.60;99.90;;;;;;5092898;28;20224;-91
2021/12/19 13:12:15;;;;;;;1.77;1.67;;;8.80;99.90;;;;;;5093815;28;20247;-91
2021/12/19 13:14:50;;;;;;;1.80;1.70;;;8.50;99.90;;;;;;5093820;28;20219;-91
2021/12/19 13:17:20;;;;;;;1.90;1.80;;;8.40;99.90;;;;;;5093567;28;20220;-91
2021/12/19 13:19:54;;;;;;;1.98;1.80;;;8.30;99.90;;;;;;5092795;28;20264;-91
2021/12/19 13:22:33;;;;;;;2.65;2.28;;;8.40;99.90;;;;;;5093610;28;20208;-90
2021/12/19 13:25:07;;;;;;;2.10;2.00;;;8.30;99.90;;;;;;5101127;28;20200;-89
2021/12/19 13:27:38;;;;;;;1.90;1.80;;;8.20;99.90;;;;;;5101029;28;20254;-90
2021/12/19 13:30:14;;;;;;;1.85;1.75;;;8.20;99.90;;;;;;5092870;28;20234;-91
2021/12/19 13:32:44;;;;;;;17.05;2.15;;;8.10;99.90;;;;;;5093155;28;20227;-90
2021/12/19 13:35:23;;;;;;;2.10;2.00;;;7.80;99.90;;;;;;5092764;28;20232;-91
2021/12/19 13:37:56;;;;;;;2.03;1.83;;;7.50;99.90;;;;;;5093768;28;20228;-91
2021/12/19 13:40:27;;;;;;;2.10;1.90;;;6.90;99.90;;;;;;5093011;28;20213;-91
2021/12/19 13:42:59;;;;;;;3.50;2.85;;;6.90;99.90;;;;;;5093228;28;20205;-90
2021/12/19 13:45:37;;;;;;;4.80;2.55;;;6.80;99.90;;;;;;5093435;28;20230;-90
2021/12/19 13:48:09;;;;;;;2.08;1.98;;;6.60;99.90;;;;;;5093485;28;20252;-92
2021/12/19 13:50:40;;;;;;;2.65;2.45;;;6.40;99.90;;;;;;5093171;28;20196;-91
2021/12/19 13:53:14;;;;;;;2.50;2.30;;;6.40;99.90;;;;;;5093019;28;20216;-92
2021/12/19 13:55:45;;;;;;;2.40;2.20;;;6.30;99.90;;;;;;5092894;28;20269;-90
2021/12/19 13:58:14;;;;;;;2.60;2.40;;;6.20;99.90;;;;;;5092813;28;20232;-90
2021/12/19 14:00:44;;;;;;;3.20;2.53;;;6.20;99.90;;;;;;5092346;28;20200;-90
2021/12/19 14:03:13;;;;;;;8.60;2.80;;;6.10;99.90;;;;;;5092872;28;20227;-90
2021/12/19 14:05:47;;;;;;;2.55;2.35;;;6.10;99.90;;;;;;5092747;28;20291;-90
2021/12/19 14:08:39;;;;;;;2.47;2.17;;;6.10;99.90;;;;;;5092859;28;20224;-90